Time;durP1;ratioP1;P1;durP2;ratioP2;P2;SDS_P1;SDS_P2;PMS_P1;PMS_P2;Temp;Humidity;BMP_temperature;BMP_pressure;BME280_temperature;BME280_humidity;BME280_pressure;Samples;Min_cycle;Max_cycle;Signal;HPM_P1;HPM_P2
2022/03/08 00:01:52;;;;;;;17.58;7.60;;;;;;;-1.05;100.00;102276.47;5326251;27;20024;-78
2022/03/08 00:04:25;;;;;;;10.07;7.50;;;;;;;-1.09;100.00;102269.59;5316562;28;42160;-78
2022/03/08 00:06:57;;;;;;;10.98;7.43;;;;;;;-1.06;100.00;102275.63;5325906;28;20016;-78
2022/03/08 00:09:29;;;;;;;10.32;7.45;;;;;;;-1.00;100.00;102277.25;5324470;27;20050;-78
2022/03/08 00:12:00;;;;;;;11.73;7.55;;;;;;;-1.00;100.00;102269.38;5322608;28;20980;-78
2022/03/08 00:14:33;;;;;;;11.20;6.80;;;;;;;-0.99;100.00;102277.22;5324447;28;20126;-78
2022/03/08 00:17:04;;;;;;;8.68;6.32;;;;;;;-0.98;100.00;102268.47;5307399;28;20027;-78
2022/03/08 00:19:35;;;;;;;9.45;7.30;;;;;;;-0.95;100.00;102275.38;5310056;28;20024;-78
2022/03/08 00:22:06;;;;;;;8.95;6.82;;;;;;;-0.95;100.00;102270.16;5324788;28;20020;-78
2022/03/08 00:24:38;;;;;;;12.02;8.00;;;;;;;-0.93;100.00;102273.59;5324592;28;20024;-78
2022/03/08 00:27:09;;;;;;;8.80;6.65;;;;;;;-0.92;100.00;102267.47;5323216;27;20361;-78
2022/03/08 00:29:41;;;;;;;9.05;6.95;;;;;;;-0.98;100.00;102259.75;5325579;28;20043;-78
2022/03/08 00:32:12;;;;;;;11.05;6.97;;;;;;;-0.93;100.00;102264.88;5308307;28;20064;-78
2022/03/08 00:34:43;;;;;;;13.18;7.40;;;;;;;-0.95;100.00;102264.91;5306713;28;20756;-78
2022/03/08 00:37:14;;;;;;;9.43;6.68;;;;;;;-1.02;100.00;102264.19;5324351;28;20024;-78
2022/03/08 00:39:46;;;;;;;9.85;7.22;;;;;;;-1.01;100.00;102260.69;5324021;28;20028;-78
2022/03/08 00:42:17;;;;;;;9.40;6.38;;;;;;;-1.06;100.00;102249.44;5323216;28;20449;-78
2022/03/08 00:44:49;;;;;;;9.93;6.95;;;;;;;-0.97;100.00;102262.31;5322294;28;20016;-78
2022/03/08 00:47:20;;;;;;;7.60;6.28;;;;;;;-0.96;100.00;102258.81;5324115;28;20409;-78
2022/03/08 00:49:51;;;;;;;10.18;6.80;;;;;;;-0.94;100.00;102255.31;5324048;28;20119;-78
2022/03/08 00:52:23;;;;;;;11.30;6.50;;;;;;;-1.01;100.00;102260.69;5318258;27;20051;-78
2022/03/08 00:54:54;;;;;;;11.38;6.22;;;;;;;-1.04;100.00;102254.66;5302256;28;20062;-78
2022/03/08 00:57:25;;;;;;;7.88;5.95;;;;;;;-1.03;100.00;102254.63;5298542;28;41427;-78
2022/03/08 00:59:56;;;;;;;8.55;6.78;;;;;;;-0.96;100.00;102268.44;5318033;27;20039;-78
2022/03/08 01:02:28;;;;;;;10.35;6.60;;;;;;;-1.03;100.00;102252.00;5304457;28;20035;-78
2022/03/08 01:04:59;;;;;;;10.18;6.85;;;;;;;-0.95;100.00;102264.91;5318669;28;20072;-78
2022/03/08 01:07:30;;;;;;;11.75;7.00;;;;;;;-0.87;100.00;102257.75;5315998;27;20024;-78
2022/03/08 01:10:04;;;;;;;7.20;6.15;;;;;;;-0.99;100.00;102252.78;5319234;28;20484;-78
2022/03/08 01:12:35;;;;;;;12.77;6.55;;;;;;;-0.91;100.00;102257.84;5320791;27;20106;-78
2022/03/08 01:15:08;;;;;;;8.13;6.47;;;;;;;-0.90;100.00;102255.19;5318169;27;20016;-78
2022/03/08 01:17:40;;;;;;;12.05;6.18;;;;;;;-0.89;100.00;102251.69;5319012;28;20031;-78
2022/03/08 01:20:11;;;;;;;10.85;7.10;;;;;;;-0.79;100.00;102258.47;5315918;28;20468;-78
2022/03/08 01:22:43;;;;;;;10.10;6.65;;;;;;;-0.76;100.00;102253.13;5302463;28;20453;-78
2022/03/08 01:25:16;;;;;;;8.40;5.85;;;;;;;-0.81;100.00;102254.13;5315174;28;20105;-78
2022/03/08 01:27:49;;;;;;;9.73;6.85;;;;;;;-0.83;100.00;102251.53;5298019;28;20031;-78
2022/03/08 01:30:23;;;;;;;10.02;6.50;;;;;;;-0.78;100.00;102252.31;5318970;27;20161;-78
2022/03/08 01:32:54;;;;;;;11.00;6.90;;;;;;;-0.77;100.00;102246.19;5320502;27;20028;-78
2022/03/08 01:35:26;;;;;;;8.52;6.63;;;;;;;-0.78;100.00;102231.34;5323348;27;20043;-78
2022/03/08 01:37:57;;;;;;;9.02;6.40;;;;;;;-0.68;100.00;102234.63;5320662;27;20043;-78
2022/03/08 01:40:29;;;;;;;7.72;6.43;;;;;;;-0.73;100.00;102236.47;5296297;28;20207;-78
2022/03/08 01:43:02;;;;;;;9.82;6.50;;;;;;;-0.74;100.00;102229.50;5318598;27;20028;-78
2022/03/08 01:45:34;;;;;;;9.73;6.03;;;;;;;-0.75;100.00;102222.56;5301860;28;20028;-78
2022/03/08 01:48:05;;;;;;;10.63;6.13;;;;;;;-0.78;100.00;102226.09;5316117;28;20031;-78
2022/03/08 01:50:36;;;;;;;8.43;6.32;;;;;;;-0.74;100.00;102224.25;5316072;27;20089;-78
2022/03/08 01:53:08;;;;;;;8.73;6.28;;;;;;;-0.71;100.00;102220.72;5322997;27;20071;-78
2022/03/08 01:55:39;;;;;;;7.70;6.20;;;;;;;-0.79;100.00;102216.53;5321923;28;20031;-78
2022/03/08 01:58:11;;;;;;;7.50;5.90;;;;;;;-0.85;100.00;102215.81;5323030;27;20193;-78
2022/03/08 02:00:43;;;;;;;8.68;6.20;;;;;;;-0.85;100.00;102213.19;5323193;28;20040;-78
2022/03/08 02:03:14;;;;;;;10.95;6.38;;;;;;;-0.89;100.00;102201.91;5322470;28;20138;-78
2022/03/08 02:05:45;;;;;;;8.45;6.57;;;;;;;-0.84;100.00;102207.03;5322070;28;20023;-78
2022/03/08 02:29:06;;;;;;;7.93;6.05;;;;;;;-0.79;100.00;102197.31;5307349;28;20025;-78
2022/03/08 02:31:37;;;;;;;7.82;5.70;;;;;;;-0.82;100.00;102200.03;5327385;28;20042;-78
2022/03/08 02:34:08;;;;;;;8.38;6.47;;;;;;;-0.89;100.00;102191.44;5327361;28;20392;-78
2022/03/08 02:36:41;;;;;;;8.88;6.20;;;;;;;-0.84;100.00;102189.56;5309391;28;20047;-78
2022/03/08 02:39:12;;;;;;;8.57;6.60;;;;;;;-0.90;100.00;102167.91;5290527;28;20172;-78
2022/03/08 02:41:44;;;;;;;9.35;5.90;;;;;;;-0.83;100.00;102188.66;5325548;28;34628;-78
2022/03/08 02:44:15;;;;;;;8.80;5.88;;;;;;;-0.80;100.00;102185.97;5328702;28;20071;-78
2022/03/08 02:46:47;;;;;;;7.95;6.35;;;;;;;-0.82;100.00;102179.06;5313115;28;20039;-78
2022/03/08 02:49:18;;;;;;;9.25;6.28;;;;;;;-0.88;100.00;102174.81;5328072;27;20124;-77
2022/03/08 02:51:49;;;;;;;10.75;6.90;;;;;;;-0.93;100.00;102168.81;5331980;27;20173;-78
2022/03/08 02:54:20;;;;;;;8.18;6.65;;;;;;;-0.96;100.00;102166.28;5347899;27;20047;-78
2022/03/08 02:56:52;;;;;;;8.45;6.40;;;;;;;-0.98;100.00;102170.72;5348427;27;20026;-78
2022/03/08 02:59:23;;;;;;;8.75;6.28;;;;;;;-0.97;100.00;102169.78;5347430;27;20100;-78
2022/03/08 03:01:55;;;;;;;9.20;6.50;;;;;;;-1.00;100.00;102162.88;5351960;27;20019;-78
2022/03/08 03:04:26;;;;;;;10.13;7.03;;;;;;;-1.15;100.00;102148.38;5349259;27;20047;-77
2022/03/08 03:06:58;;;;;;;7.35;6.15;;;;;;;-1.17;100.00;102147.53;5348867;27;20597;-78
2022/03/08 03:09:29;;;;;;;9.07;6.47;;;;;;;-1.13;100.00;102147.47;5348701;27;20081;-78
2022/03/08 03:12:01;;;;;;;9.07;6.70;;;;;;;-1.15;100.00;102150.13;5344988;27;20153;-78
2022/03/08 03:14:32;;;;;;;7.90;6.63;;;;;;;-1.17;100.00;102136.22;5349278;27;20020;-78
2022/03/08 03:17:03;;;;;;;7.95;6.13;;;;;;;-1.16;100.00;102145.78;5348520;27;20080;-78
2022/03/08 03:19:36;;;;;;;9.38;6.50;;;;;;;-1.19;100.00;102140.63;5348641;27;20019;-78
2022/03/08 03:22:07;;;;;;;10.52;6.50;;;;;;;-1.16;100.00;102138.81;5348396;27;20087;-77
2022/03/08 03:24:38;;;;;;;11.25;6.40;;;;;;;-1.22;100.00;102120.59;5348754;27;20062;-78
2022/03/08 03:27:11;;;;;;;9.75;6.15;;;;;;;-1.24;100.00;102127.63;5345946;27;20032;-78
2022/03/08 03:29:42;;;;;;;9.05;6.85;;;;;;;-1.31;100.00;102106.88;5348924;27;20472;-78
2022/03/08 03:32:13;;;;;;;9.63;6.63;;;;;;;-1.35;100.00;102114.78;5348700;27;20040;-78
2022/03/08 03:34:48;;;;;;;8.48;6.60;;;;;;;-1.33;100.00;102112.16;5347831;27;20028;-78
2022/03/08 03:37:20;;;;;;;7.50;6.35;;;;;;;-1.30;100.00;102113.81;5346772;27;20080;-78
2022/03/08 03:39:51;;;;;;;10.45;7.10;;;;;;;-1.31;100.00;102102.50;5347810;27;20028;-78
2022/03/08 03:42:22;;;;;;;12.20;7.78;;;;;;;-1.22;100.00;102110.13;5347690;27;20026;-78
2022/03/08 03:44:54;;;;;;;8.70;6.65;;;;;;;-1.36;100.00;102115.69;5346843;27;20028;-77
2022/03/08 03:47:25;;;;;;;10.30;7.50;;;;;;;-1.42;100.00;102109.72;5347438;27;20022;-78
2022/03/08 03:49:56;;;;;;;8.50;6.60;;;;;;;-1.44;100.00;102114.13;5348221;27;20077;-78
2022/03/08 03:52:28;;;;;;;7.72;6.32;;;;;;;-1.43;100.00;102118.47;5346664;27;20134;-77
2022/03/08 03:55:00;;;;;;;8.93;7.05;;;;;;;-1.40;100.00;102115.81;5347583;27;20031;-78
2022/03/08 03:57:31;;;;;;;12.43;7.43;;;;;;;-1.50;100.00;102122.13;5347532;27;20028;-78
2022/03/08 04:00:05;;;;;;;9.77;7.07;;;;;;;-1.58;100.00;102117.03;5347696;27;20020;-77
2022/03/08 04:02:36;;;;;;;9.48;6.40;;;;;;;-1.60;100.00;102121.44;5341025;27;20034;-78
2022/03/08 04:05:09;;;;;;;8.27;7.00;;;;;;;-1.61;100.00;102110.13;5346668;27;20380;-78
2022/03/08 04:07:40;;;;;;;9.55;6.80;;;;;;;-1.56;100.00;102116.13;5347878;27;20102;-78
2022/03/08 04:10:14;;;;;;;11.10;6.93;;;;;;;-1.60;100.00;102114.47;5346393;27;20107;-77
2022/03/08 04:12:46;;;;;;;10.45;7.22;;;;;;;-1.66;100.00;102113.75;5347140;27;20043;-78
2022/03/08 04:15:17;;;;;;;10.15;7.60;;;;;;;-1.69;100.00;102112.03;5347809;27;20383;-78
2022/03/08 04:17:48;;;;;;;12.27;7.47;;;;;;;-1.69;100.00;102124.28;5347607;27;20030;-77
2022/03/08 04:20:20;;;;;;;9.38;7.47;;;;;;;-1.67;100.00;102105.03;5347666;27;20030;-78
2022/03/08 04:22:51;;;;;;;9.30;7.72;;;;;;;-1.70;100.00;102107.72;5346537;27;20115;-78
2022/03/08 04:25:22;;;;;;;9.98;7.18;;;;;;;-1.69;100.00;102109.44;5346089;27;20015;-77
2022/03/08 04:27:54;;;;;;;10.05;7.53;;;;;;;-1.76;100.00;102097.38;5347331;27;20096;-78
2022/03/08 04:30:25;;;;;;;12.10;8.02;;;;;;;-1.68;100.00;102102.44;5347420;27;20035;-77
2022/03/08 04:32:57;;;;;;;8.68;7.25;;;;;;;-1.77;100.00;102095.63;5346538;27;20059;-77
2022/03/08 04:35:28;;;;;;;10.65;8.00;;;;;;;-1.73;100.00;102106.03;5346371;27;20022;-78
2022/03/08 04:38:00;;;;;;;12.02;8.05;;;;;;;-1.73;100.00;102105.16;5347247;27;20043;-77
2022/03/08 04:40:32;;;;;;;12.45;7.43;;;;;;;-1.76;100.00;102100.84;5346762;27;20310;-78
2022/03/08 04:43:03;;;;;;;10.07;7.32;;;;;;;-1.78;100.00;102105.25;5347316;27;20027;-77
2022/03/08 04:45:34;;;;;;;10.23;7.35;;;;;;;-1.72;100.00;102104.25;5336919;27;20020;-77
2022/03/08 04:48:06;;;;;;;9.73;6.85;;;;;;;-1.68;100.00;102102.44;5347068;27;20037;-77
2022/03/08 04:50:37;;;;;;;11.90;7.28;;;;;;;-1.74;100.00;102101.66;5340402;27;34033;-77
2022/03/08 04:53:08;;;;;;;11.02;7.72;;;;;;;-1.79;100.00;102097.44;5323321;28;20518;-78
2022/03/08 04:55:40;;;;;;;11.82;7.35;;;;;;;-1.75;100.00;102104.34;5323454;28;20028;-77
2022/03/08 04:58:11;;;;;;;14.15;6.88;;;;;;;-1.76;100.00;102103.47;5323992;28;20032;-77
2022/03/08 05:00:42;;;;;;;10.52;6.88;;;;;;;-1.79;100.00;102103.56;5323396;28;20055;-78
2022/03/08 05:03:14;;;;;;;9.13;7.18;;;;;;;-1.83;100.00;102101.03;5324771;27;20067;-77
2022/03/08 05:05:45;;;;;;;11.52;8.10;;;;;;;-1.88;100.00;102102.88;5323968;28;20028;-77
2022/03/08 05:08:16;;;;;;;10.20;7.53;;;;;;;-1.93;100.00;102100.34;5323684;28;20023;-77
2022/03/08 05:10:48;;;;;;;10.43;6.85;;;;;;;-1.96;100.00;102100.41;5310323;28;20086;-77
2022/03/08 05:13:19;;;;;;;12.00;7.63;;;;;;;-2.00;100.00;102094.38;5324555;28;20334;-78
2022/03/08 05:15:50;;;;;;;10.45;7.70;;;;;;;-1.98;100.00;102095.22;5323180;27;20093;-77
2022/03/08 05:18:22;;;;;;;11.15;7.40;;;;;;;-1.92;100.00;102092.47;5324120;28;20012;-78
2022/03/08 05:20:53;;;;;;;9.80;7.90;;;;;;;-1.91;100.00;102094.19;5323594;28;20030;-77
2022/03/08 05:23:24;;;;;;;15.07;8.38;;;;;;;-1.77;100.00;102088.69;5324159;27;20048;-77
2022/03/08 05:25:56;;;;;;;11.65;7.28;;;;;;;-1.82;100.00;102087.03;5322719;28;20027;-78
2022/03/08 05:28:27;;;;;;;12.27;7.78;;;;;;;-1.90;100.00;102081.97;5321043;28;20372;-78
2022/03/08 05:30:58;;;;;;;9.27;7.53;;;;;;;-1.86;100.00;102085.38;5325901;28;20434;-78
2022/03/08 05:33:30;;;;;;;12.40;7.85;;;;;;;-1.69;100.00;102085.88;5330298;28;20035;-77
2022/03/08 05:36:02;;;;;;;12.25;7.53;;;;;;;-1.76;100.00;102092.16;5326982;28;20526;-78
2022/03/08 05:38:33;;;;;;;9.05;7.28;;;;;;;-1.81;100.00;102079.16;5325652;28;20501;-77
2022/03/08 05:41:05;;;;;;;11.63;7.70;;;;;;;-1.83;100.00;102080.94;5292114;28;20019;-78
2022/03/08 05:43:36;;;;;;;10.52;7.53;;;;;;;-1.86;100.00;102088.84;5299990;28;20447;-77
2022/03/08 05:46:07;;;;;;;12.00;7.43;;;;;;;-1.84;100.00;102080.97;5324659;28;20024;-77
2022/03/08 05:48:38;;;;;;;13.95;7.47;;;;;;;-1.81;100.00;102080.91;5305377;28;44255;-78
2022/03/08 05:51:10;;;;;;;10.35;7.28;;;;;;;-1.78;100.00;102086.94;5310479;28;20141;-78
2022/03/08 05:53:41;;;;;;;10.70;7.90;;;;;;;-1.74;100.00;102085.97;5311245;28;20040;-77
2022/03/08 05:56:12;;;;;;;13.82;8.75;;;;;;;-1.69;100.00;102091.13;5324091;28;20035;-78
2022/03/08 05:58:44;;;;;;;14.68;7.22;;;;;;;-1.81;100.00;102076.53;5304243;28;20032;-78
2022/03/08 06:01:15;;;;;;;11.98;7.35;;;;;;;-1.66;100.00;102077.13;5320010;28;20032;-78
2022/03/08 06:03:46;;;;;;;11.00;7.50;;;;;;;-1.72;100.00;102062.41;5336042;27;20107;-77
2022/03/08 06:06:17;;;;;;;9.95;6.75;;;;;;;-1.62;100.00;102070.91;5324070;28;20340;-77
2022/03/08 06:08:49;;;;;;;9.95;7.65;;;;;;;-1.64;100.00;102068.34;5315745;28;20020;-77
2022/03/08 06:11:21;;;;;;;13.40;7.95;;;;;;;-1.56;100.00;102078.63;5323799;28;20404;-76
2022/03/08 06:13:52;;;;;;;10.63;7.55;;;;;;;-1.55;100.00;102075.13;5314509;28;20032;-77
2022/03/08 06:16:23;;;;;;;9.27;7.35;;;;;;;-1.50;100.00;102077.63;5323583;28;20048;-77
2022/03/08 06:18:58;;;;;;;11.60;7.53;;;;;;;-1.53;100.00;102068.09;5323871;28;20027;-77
2022/03/08 06:21:30;;;;;;;11.57;7.53;;;;;;;-1.40;100.00;102076.53;5301396;28;20119;-77
2022/03/08 06:24:01;;;;;;;12.32;7.63;;;;;;;-1.38;100.00;102077.34;5318559;28;20020;-77
2022/03/08 06:26:32;;;;;;;11.50;7.30;;;;;;;-1.39;100.00;102088.72;5323040;28;20031;-78
2022/03/08 06:29:04;;;;;;;12.20;7.72;;;;;;;-1.41;100.00;102078.28;5304636;27;20024;-78
2022/03/08 06:31:36;;;;;;;10.32;7.43;;;;;;;-1.35;100.00;102080.78;5324308;28;20012;-78
2022/03/08 06:34:07;;;;;;;10.23;7.15;;;;;;;-1.29;100.00;102077.13;5323854;28;20036;-78
2022/03/08 06:36:39;;;;;;;11.05;6.72;;;;;;;-1.01;100.00;102077.34;5323881;28;20059;-78
2022/03/08 06:39:12;;;;;;;10.65;6.63;;;;;;;-0.70;100.00;102073.94;5323597;28;20047;-78
2022/03/08 06:41:44;;;;;;;14.80;6.90;;;;;;;-0.66;100.00;102083.44;5323635;28;20017;-77
2022/03/08 06:44:15;;;;;;;12.15;7.38;;;;;;;-0.66;100.00;102080.81;5323665;28;20089;-75
2022/03/08 06:46:46;;;;;;;13.05;7.55;;;;;;;-0.47;100.00;102082.97;5324109;28;20028;-78
2022/03/08 06:49:18;;;;;;;9.68;7.00;;;;;;;-0.05;100.00;102082.69;5305375;28;20036;-77
2022/03/08 06:51:49;;;;;;;8.02;6.80;;;;;;;0.28;100.00;102074.72;5323712;27;20058;-78
2022/03/08 06:54:21;;;;;;;12.15;7.80;;;;;;;0.40;100.00;102090.09;5323816;28;20101;-78
2022/03/08 06:56:52;;;;;;;10.10;6.45;;;;;;;0.42;100.00;102079.53;5304383;28;20034;-78
2022/03/08 06:59:23;;;;;;;8.60;6.35;;;;;;;0.35;100.00;102071.00;5322863;28;20089;-77
2022/03/08 07:01:56;;;;;;;8.23;6.78;;;;;;;0.31;100.00;102075.47;5326982;27;20035;-77
2022/03/08 07:04:27;;;;;;;8.70;6.15;;;;;;;0.35;100.00;102076.25;5336368;27;20028;-77
2022/03/08 07:06:59;;;;;;;10.93;6.93;;;;;;;0.36;100.00;102063.06;5323511;28;20417;-78
2022/03/08 07:09:30;;;;;;;10.00;7.05;;;;;;;0.41;100.00;102075.22;5323659;28;20095;-77
2022/03/08 07:12:01;;;;;;;9.35;6.70;;;;;;;0.45;100.00;102069.81;5322435;27;20020;-78
2022/03/08 07:14:33;;;;;;;11.32;6.80;;;;;;;0.88;100.00;102076.34;5326296;28;20035;-77
2022/03/08 07:17:04;;;;;;;9.68;7.10;;;;;;;1.70;100.00;102086.69;5326635;28;20012;-78
2022/03/08 07:19:36;;;;;;;11.93;7.07;;;;;;;2.73;100.00;102080.19;5326791;28;20052;-78
2022/03/08 07:22:07;;;;;;;11.63;6.88;;;;;;;3.54;100.00;102083.88;5325700;28;20028;-78
2022/03/08 07:24:38;;;;;;;14.65;7.03;;;;;;;4.04;96.05;102076.41;5326484;28;20130;-78
2022/03/08 07:27:10;;;;;;;8.60;6.13;;;;;;;4.63;86.70;102085.09;5325449;28;20032;-77
2022/03/08 07:29:46;;;;;;;7.53;6.18;;;;;;;5.09;78.18;102081.06;5325957;28;20077;-77
2022/03/08 07:32:20;;;;;;;8.52;5.90;;;;;;;5.52;72.36;102090.41;5323547;28;20046;-78
2022/03/08 07:34:52;;;;;;;8.45;6.18;;;;;;;5.94;66.37;102089.94;5325267;27;20024;-78
2022/03/08 07:37:24;;;;;;;8.27;6.78;;;;;;;6.70;65.64;102085.84;5348415;27;20498;-79
2022/03/08 07:39:55;;;;;;;9.07;6.82;;;;;;;7.01;59.84;102087.59;5348082;27;20050;-79
2022/03/08 07:42:27;;;;;;;9.45;6.40;;;;;;;7.49;57.56;102084.81;5314498;28;20048;-78
2022/03/08 07:44:59;;;;;;;9.27;6.57;;;;;;;7.55;53.59;102073.81;5313432;28;20021;-79
2022/03/08 07:47:30;;;;;;;7.55;6.63;;;;;;;7.90;51.73;102078.75;5316869;28;20362;-78
2022/03/08 07:50:03;;;;;;;6.82;5.85;;;;;;;8.25;51.12;102067.72;5326256;28;20024;-79
2022/03/08 07:52:34;;;;;;;6.45;5.50;;;;;;;8.60;48.31;102070.81;5325974;27;20063;-79
2022/03/08 07:55:07;;;;;;;7.72;6.05;;;;;;;9.36;47.77;102072.00;5326267;27;20717;-79
2022/03/08 07:57:39;;;;;;;7.10;5.88;;;;;;;9.32;44.28;102078.47;5326371;28;20418;-79
2022/03/08 08:00:11;;;;;;;8.10;5.80;;;;;;;9.67;43.44;102088.53;5325998;28;20024;-79
2022/03/08 08:02:42;;;;;;;6.53;5.72;;;;;;;9.93;42.09;102076.06;5326471;27;20388;-79
2022/03/08 08:05:13;;;;;;;6.55;5.20;;;;;;;10.21;42.09;102066.94;5321496;28;20107;-79
2022/03/08 08:07:45;;;;;;;6.43;5.40;;;;;;;10.54;40.26;102062.00;5325892;28;20111;-77
2022/03/08 08:10:16;;;;;;;6.82;5.50;;;;;;;11.41;39.70;102072.41;5315492;27;20118;-78
2022/03/08 08:12:50;;;;;;;9.00;6.00;;;;;;;11.42;38.02;102074.13;5333391;27;20192;-78
2022/03/08 08:15:22;;;;;;;6.35;5.53;;;;;;;11.62;37.74;102077.91;5307484;28;20337;-78
2022/03/08 08:17:53;;;;;;;8.15;5.80;;;;;;;11.77;36.31;102081.22;5308329;28;20027;-79
2022/03/08 08:20:25;;;;;;;6.30;5.70;;;;;;;12.22;36.02;102078.56;5290507;27;20028;-79
2022/03/08 08:22:56;;;;;;;8.45;6.03;;;;;;;12.33;35.27;102075.88;5325683;27;20024;-80
2022/03/08 08:25:27;;;;;;;8.60;5.93;;;;;;;12.34;34.27;102080.28;5325123;28;20525;-80
2022/03/08 08:27:59;;;;;;;6.15;5.32;;;;;;;12.71;34.20;102063.00;5326623;28;20058;-80
2022/03/08 08:30:33;;;;;;;7.10;5.43;;;;;;;13.47;34.17;102076.34;5325815;28;20024;-80
2022/03/08 08:33:05;;;;;;;7.50;5.50;;;;;;;13.94;32.85;102077.59;5304532;28;20515;-80
2022/03/08 08:35:36;;;;;;;8.13;5.28;;;;;;;14.33;31.84;102079.56;5321004;28;20058;-80
2022/03/08 08:38:07;;;;;;;8.00;5.80;;;;;;;13.99;31.25;102037.78;5307358;28;20071;-80
2022/03/08 08:40:39;;;;;;;6.88;5.28;;;;;;;14.03;31.80;102064.34;5319253;28;20093;-79
2022/03/08 08:43:10;;;;;;;5.50;4.93;;;;;;;14.13;31.06;102079.50;5324921;28;20059;-80
2022/03/08 08:45:42;;;;;;;6.97;5.00;;;;;;;13.84;30.45;102081.22;5325442;28;20115;-79
2022/03/08 08:48:13;;;;;;;6.35;4.90;;;;;;;13.74;31.46;102082.00;5307022;28;20051;-80
2022/03/08 08:50:44;;;;;;;6.60;4.75;;;;;;;13.76;31.45;102057.72;5324993;27;20170;-80
2022/03/08 08:53:16;;;;;;;5.95;4.97;;;;;;;13.94;30.38;102061.50;5333964;27;20400;-79
2022/03/08 08:55:48;;;;;;;7.75;4.78;;;;;;;13.82;30.23;102059.88;5340888;27;20028;-80
2022/03/08 08:58:19;;;;;;;6.22;4.80;;;;;;;14.15;30.31;102056.06;5305678;28;20086;-80
2022/03/08 09:00:51;;;;;;;6.25;5.03;;;;;;;14.87;29.50;102054.09;5305531;28;20032;-80
2022/03/08 09:03:23;;;;;;;8.13;4.55;;;;;;;15.65;28.63;102058.50;5289332;28;20028;-80
2022/03/08 09:05:54;;;;;;;8.00;4.93;;;;;;;15.14;27.78;102065.97;5325797;27;20429;-80
2022/03/08 09:08:25;;;;;;;5.80;4.80;;;;;;;15.10;27.48;102083.38;5307220;28;20376;-81
2022/03/08 09:10:57;;;;;;;6.15;4.30;;;;;;;14.06;28.65;102051.53;5325548;28;20086;-80
2022/03/08 09:13:28;;;;;;;4.90;4.40;;;;;;;14.03;28.80;102054.47;5307634;28;20396;-80
2022/03/08 09:16:00;;;;;;;7.35;4.90;;;;;;;15.15;28.85;102069.47;5318260;28;20030;-81
2022/03/08 09:18:31;;;;;;;6.00;5.13;;;;;;;15.48;26.50;102066.34;5306321;28;20023;-80
2022/03/08 09:21:06;;;;;;;7.95;4.22;;;;;;;15.53;27.00;102054.28;5325204;28;20542;-79
2022/03/08 09:23:38;;;;;;;7.90;4.80;;;;;;;15.66;26.41;102050.28;5324924;28;20016;-79
2022/03/08 09:26:09;;;;;;;10.85;5.45;;;;;;;15.79;26.61;102054.53;5324203;28;20016;-78
2022/03/08 09:28:41;;;;;;;7.32;4.70;;;;;;;16.05;25.82;102049.31;5306917;28;20447;-79
2022/03/08 09:31:12;;;;;;;8.38;4.95;;;;;;;15.66;26.54;102036.00;5324478;28;20109;-79
2022/03/08 09:33:44;;;;;;;6.30;4.88;;;;;;;16.01;26.99;102024.56;5324576;28;20491;-79
2022/03/08 09:36:15;;;;;;;5.55;4.78;;;;;;;16.59;26.04;102027.88;5306153;28;20123;-79
2022/03/08 09:38:47;;;;;;;6.70;4.95;;;;;;;16.66;25.51;102025.44;5324212;28;20031;-79
2022/03/08 09:41:19;;;;;;;7.03;4.65;;;;;;;16.91;25.40;102040.84;5305135;28;20111;-79
2022/03/08 09:43:51;;;;;;;6.57;4.35;;;;;;;16.23;25.35;102019.75;5303046;28;20112;-79
2022/03/08 09:46:22;;;;;;;5.55;4.50;;;;;;;16.82;24.91;102026.41;5302851;28;20162;-79
2022/03/08 09:48:54;;;;;;;4.75;4.25;;;;;;;18.49;23.85;102020.78;5321020;28;20032;-80
2022/03/08 09:51:25;;;;;;;6.90;4.13;;;;;;;18.49;23.31;102026.19;5324425;27;20500;-79
2022/03/08 09:53:57;;;;;;;6.57;4.30;;;;;;;18.76;22.43;102015.22;5324415;28;20111;-80
2022/03/08 09:56:29;;;;;;;6.15;4.18;;;;;;;17.93;22.65;102008.81;5323835;28;20058;-80
2022/03/08 09:59:02;;;;;;;7.63;4.22;;;;;;;17.75;23.24;102016.97;5324671;28;20028;-79
2022/03/08 10:01:33;;;;;;;4.88;4.40;;;;;;;18.53;23.48;102007.81;5324492;28;20091;-80
2022/03/08 10:04:06;;;;;;;5.18;4.15;;;;;;;18.81;22.89;102010.19;5327869;27;20527;-80
2022/03/08 10:06:42;;;;;;;5.93;4.50;;;;;;;20.00;21.56;102023.03;5312863;28;20024;-80
2022/03/08 10:09:15;;;;;;;6.22;4.28;;;;;;;19.50;21.83;102002.53;5306242;28;20028;-80
2022/03/08 10:11:55;;;;;;;5.60;4.35;;;;;;;19.70;22.13;102000.25;5305654;28;20020;-80
2022/03/08 10:14:37;;;;;;;7.97;4.10;;;;;;;20.27;20.85;102007.31;5305848;28;20039;-80
2022/03/08 10:17:30;;;;;;;7.35;4.45;;;;;;;19.10;21.62;102000.75;5324350;28;20036;-80
2022/03/08 10:20:03;;;;;;;5.60;4.32;;;;;;;19.48;21.07;102001.88;5323701;28;20032;-80
2022/03/08 10:22:40;;;;;;;4.60;4.18;;;;;;;20.27;21.06;102011.91;5306555;28;20028;-80
2022/03/08 10:25:19;;;;;;;4.55;4.10;;;;;;;20.32;20.53;102004.91;5323134;28;20024;-80
2022/03/08 10:27:50;;;;;;;5.28;4.60;;;;;;;19.35;21.40;101998.84;5329695;27;20016;-80
2022/03/08 10:30:29;;;;;;;5.68;4.38;;;;;;;19.46;21.47;101998.50;5345898;27;20028;-79
2022/03/08 10:33:00;;;;;;;5.35;4.18;;;;;;;20.25;21.06;101998.53;5341714;27;20060;-79
2022/03/08 10:35:37;;;;;;;7.97;4.57;;;;;;;20.20;20.62;101992.78;5289884;28;20025;-79
2022/03/08 10:38:14;;;;;;;4.30;3.90;;;;;;;20.13;20.69;101997.25;5323939;28;20154;-79
2022/03/08 10:40:46;;;;;;;7.50;4.65;;;;;;;20.89;20.21;101981.13;5302265;28;20016;-79
2022/03/08 10:43:18;;;;;;;5.13;4.00;;;;;;;20.94;20.45;101981.44;5303431;28;20021;-80
2022/03/08 10:45:51;;;;;;;7.05;3.90;;;;;;;20.96;19.78;101979.38;5312440;28;20035;-80
2022/03/08 10:48:26;;;;;;;5.60;4.13;;;;;;;20.91;20.25;101968.22;5327870;28;20036;-80
2022/03/08 10:50:57;;;;;;;5.50;4.10;;;;;;;19.98;20.46;101972.75;5316956;27;20154;-79
2022/03/08 10:53:28;;;;;;;7.18;4.70;;;;;;;20.40;19.83;101971.50;5348907;27;20226;-80
2022/03/08 10:56:00;;;;;;;11.30;4.30;;;;;;;18.51;22.14;101972.84;5348172;27;20069;-79
2022/03/08 10:58:31;;;;;;;7.53;4.40;;;;;;;19.24;21.25;101971.13;5347875;27;20024;-79
2022/03/08 11:01:10;;;;;;;6.20;4.22;;;;;;;18.87;22.09;101969.84;5347183;27;20020;-80
2022/03/08 11:03:55;;;;;;;4.47;4.05;;;;;;;19.16;21.47;101979.28;5364112;27;20458;-80
2022/03/08 11:06:27;;;;;;;5.50;4.60;;;;;;;19.02;21.68;101967.31;5348986;27;20051;-79
2022/03/08 11:08:58;;;;;;;7.80;4.15;;;;;;;19.84;21.07;101958.09;5348576;27;20051;-79
2022/03/08 11:11:30;;;;;;;6.70;4.18;;;;;;;19.92;20.99;101965.38;5346132;27;20401;-79
2022/03/08 11:14:01;;;;;;;4.93;4.10;;;;;;;20.01;20.64;101961.59;5331969;27;20036;-80
2022/03/08 11:16:33;;;;;;;6.50;4.25;;;;;;;20.54;20.59;101969.88;5348866;27;20058;-80
2022/03/08 11:19:05;;;;;;;5.15;4.05;;;;;;;20.88;20.26;101957.75;5348898;27;20100;-80
2022/03/08 11:21:37;;;;;;;5.65;4.03;;;;;;;21.45;19.52;101967.16;5348260;27;20365;-80
2022/03/08 11:24:08;;;;;;;6.15;4.40;;;;;;;21.92;19.40;101957.78;5347129;27;20011;-79
2022/03/08 11:26:41;;;;;;;6.10;4.47;;;;;;;21.36;19.29;101957.44;5347795;27;20126;-80
2022/03/08 11:29:15;;;;;;;7.20;4.43;;;;;;;21.83;19.34;101948.06;5348078;27;20034;-80
2022/03/08 11:31:53;;;;;;;4.82;4.10;;;;;;;22.36;19.06;101947.84;5346990;27;20047;-79
2022/03/08 11:34:35;;;;;;;6.95;4.22;;;;;;;23.32;18.22;101950.94;5346333;27;20031;-78
2022/03/08 11:37:20;;;;;;;5.15;4.35;;;;;;;22.65;18.89;101942.25;5344115;27;20081;-80
2022/03/08 11:40:12;;;;;;;5.47;4.70;;;;;;;22.33;19.00;101938.19;5336601;27;20012;-79
2022/03/08 11:42:46;;;;;;;8.30;4.80;;;;;;;22.39;18.67;101950.19;5347817;27;20085;-79
2022/03/08 11:45:23;;;;;;;7.40;4.90;;;;;;;22.60;19.04;101941.19;5347893;27;20035;-79
2022/03/08 11:47:55;;;;;;;4.90;4.40;;;;;;;22.98;18.47;101928.09;5345479;27;20023;-79
2022/03/08 11:50:33;;;;;;;8.43;4.45;;;;;;;22.58;18.27;101929.63;5344563;27;20108;-79
2022/03/08 11:53:06;;;;;;;6.13;4.15;;;;;;;21.87;19.50;101920.34;5321906;28;20051;-79
2022/03/08 11:55:48;;;;;;;10.15;4.90;;;;;;;22.58;18.96;101918.75;5326236;28;20016;-79
2022/03/08 11:58:21;;;;;;;5.63;4.13;;;;;;;22.68;18.37;101932.03;5312060;27;20357;-79
2022/03/08 12:00:55;;;;;;;6.20;4.35;;;;;;;22.91;17.89;101910.03;5305357;28;20020;-79
2022/03/08 12:03:29;;;;;;;7.05;4.22;;;;;;;23.20;17.70;101907.09;5286909;28;20452;-79